• Join FlightAware (Why Join?)
  • Login
  • US Flag 
07:00PM EDT


 

Airport Tracker/Info


-or-


 

Live Flight TrackerFlight Track Log ✈ PDT4140 ✈ 28-Apr-2013 ✈ KPHL - KAVP

Flight Track Log - Related Links

Times and Time Zones

All times are in EDT time to prevent confusion due to time zone crossing. See the PDT4140 flight status page for this flight to view local times or setup timezone preferences in your user account.

Time Position Orientation Groundspeed Altitude Reporting Facility
EDT Latitude Longitude Course Direction KTS MPH feet Rate Location/Type
01:27PM 39.9000 -75.2333 North 125 144 800  Level Philadelphia TRACON
01:28PM 39.9167 -75.2833 294° West 147 169 2,900 1,560 Climbing Philadelphia TRACON
01:29PM 39.9333 -75.3500 288° West 163 188 4,200 1,260 Climbing Philadelphia TRACON
01:30PM 40.0808 -75.4237 339° North  Level FlightAware Approximate
01:30PM 39.9500 -75.4000 294° West 172 198 5,500  Level Philadelphia TRACON
01:31PM 40.1460 -75.4960 323° Northwest  Level FlightAware Approximate
01:31PM 39.9667 -75.4667 288° West 180 207 7,000  Level Philadelphia TRACON
01:31PM 39.9656 -75.4728 257° West 178 205 7,200 1,380 Climbing New York Center
01:32PM 40.2157 -75.5500 North  Level FlightAware Approximate
01:32PM 40.0172 -75.4869 348° North 179 206 8,700  Level New York Center
01:33PM 40.0683 -75.5094 341° North 226 260 9,000 420 Climbing New York Center
01:34PM 40.1297 -75.5381 340° North 237 273 9,600 480 Climbing New York Center
01:35PM 40.1917 -75.5558 348° North 232 267 10,000 180 Climbing New York Center
01:36PM 40.2481 -75.6006 329° Northwest 237 273 10,000 420 Level New York Center
01:37PM 40.2872 -75.6633 309° West 231 266 10,900 960 Climbing New York Center
01:38PM 40.3425 -75.6836 344° North 197 227 11,900 540 Climbing New York Center
01:39PM 40.4008 -75.6878 357° North 212 244 12,000  Climbing New York Center
01:40PM 40.4692 -75.6953 355° North 234 269 12,000 -300 Level New York Center
01:41PM 40.5464 -75.6925 North 245 282 11,400 -780 Descending New York Center
01:42PM 40.6236 -75.6928 360° North 267 307 10,500 -1,020 Descending New York Center
01:43PM 40.7028 -75.6956 358° North 272 313 9,500 -780 Descending New York Center
01:44PM 40.7692 -75.7003 357° North 272 313 9,000 -420 Descending New York Center
01:45PM 40.8439 -75.7058 357° North 272 313 8,700 -720 Descending New York Center
01:46PM 40.9269 -75.7144 356° North 272 313 7,600 -1,200 Descending New York Center
01:47PM 41.0019 -75.7117 North 272 313 6,300 -1,620 Descending New York Center
01:48PM 41.0667 -75.7108 North 267 307 4,400 -1,200 Descending New York Center
01:49PM 41.1303 -75.6853 17° North 244 281 4,000 -300 Descending New York Center
01:50PM 41.1956 -75.6653 13° North 223 257 3,900 -120 Descending New York Center
01:51PM 41.2539 -75.6667 359° North 214 246 3,800 -120 Descending New York Center
01:52PM 41.3039 -75.6647 North 208 239 3,700 -120 Descending New York Center